sensor_id;sensor_type;location;lat;lon;timestamp;pressure;altitude;pressure_sealevel;temperature;humidity
44920;BME280;30655;53.094;6.072;2023-01-30T00:00:05;101470.09;;;7.15;100.00
44920;BME280;30655;53.094;6.072;2023-01-30T00:02:32;101365.34;;;6.56;100.00
44920;BME280;30655;53.094;6.072;2023-01-30T00:05:01;101440.53;;;7.15;100.00
44920;BME280;30655;53.094;6.072;2023-01-30T00:07:29;101446.47;;;7.17;100.00
44920;BME280;30655;53.094;6.072;2023-01-30T00:09:55;101350.91;;;6.68;100.00
44920;BME280;30655;53.094;6.072;2023-01-30T00:12:22;101423.81;;;7.13;100.00
44920;BME280;30655;53.094;6.072;2023-01-30T00:14:49;101410.97;;;7.15;100.00
44920;BME280;30655;53.094;6.072;2023-01-30T00:17:16;101410.63;;;7.23;100.00
44920;BME280;30655;53.094;6.072;2023-01-30T00:19:43;101409.22;;;7.21;100.00
44920;BME280;30655;53.094;6.072;2023-01-30T00:22:11;101387.25;;;7.24;100.00
44920;BME280;30655;53.094;6.072;2023-01-30T00:24:38;101357.66;;;7.01;100.00
44920;BME280;30655;53.094;6.072;2023-01-30T00:27:07;101392.84;;;7.11;100.00
44920;BME280;30655;53.094;6.072;2023-01-30T00:29:35;101393.22;;;7.26;100.00
44920;BME280;30655;53.094;6.072;2023-01-30T00:32:02;101281.41;;;6.60;100.00
44920;BME280;30655;53.094;6.072;2023-01-30T00:34:29;101264.69;;;6.58;100.00
44920;BME280;30655;53.094;6.072;2023-01-30T00:36:56;101376.03;;;7.27;100.00
44920;BME280;30655;53.094;6.072;2023-01-30T00:39:35;101298.25;;;6.79;100.00
44920;BME280;30655;53.094;6.072;2023-01-30T00:42:02;101345.38;;;7.05;100.00
44920;BME280;30655;53.094;6.072;2023-01-30T00:44:29;101212.66;;;6.18;100.00
44920;BME280;30655;53.094;6.072;2023-01-30T00:46:56;101206.50;;;6.17;100.00
44920;BME280;30655;53.094;6.072;2023-01-30T00:49:22;101327.50;;;6.87;100.00
44920;BME280;30655;53.094;6.072;2023-01-30T00:51:52;101382.22;;;7.16;100.00
44920;BME280;30655;53.094;6.072;2023-01-30T00:54:20;101328.28;;;6.76;100.00
44920;BME280;30655;53.094;6.072;2023-01-30T00:56:49;101180.31;;;6.01;100.00
44920;BME280;30655;53.094;6.072;2023-01-30T00:59:16;101202.63;;;6.13;100.00
44920;BME280;30655;53.094;6.072;2023-01-30T01:01:43;101355.91;;;7.06;100.00
44920;BME280;30655;53.094;6.072;2023-01-30T01:04:10;101161.72;;;5.88;100.00
44920;BME280;30655;53.094;6.072;2023-01-30T01:06:37;101232.53;;;6.28;100.00
44920;BME280;30655;53.094;6.072;2023-01-30T01:09:05;101247.47;;;6.24;100.00
44920;BME280;30655;53.094;6.072;2023-01-30T01:11:32;101305.28;;;6.80;100.00
44920;BME280;30655;53.094;6.072;2023-01-30T01:14:02;101293.66;;;6.56;100.00
44920;BME280;30655;53.094;6.072;2023-01-30T01:16:30;101151.28;;;5.80;100.00
44920;BME280;30655;53.094;6.072;2023-01-30T01:18:58;101266.34;;;6.59;100.00
44920;BME280;30655;53.094;6.072;2023-01-30T01:21:26;101212.00;;;6.22;100.00
44920;BME280;30655;53.094;6.072;2023-01-30T01:23:54;101248.47;;;6.41;100.00
44920;BME280;30655;53.094;6.072;2023-01-30T01:26:22;101341.75;;;6.99;100.00
44920;BME280;30655;53.094;6.072;2023-01-30T01:28:53;101314.50;;;6.84;100.00
44920;BME280;30655;53.094;6.072;2023-01-30T01:31:23;101249.75;;;6.51;100.00
44920;BME280;30655;53.094;6.072;2023-01-30T01:33:52;101276.63;;;6.62;100.00
44920;BME280;30655;53.094;6.072;2023-01-30T01:36:20;101328.66;;;7.03;100.00
44920;BME280;30655;53.094;6.072;2023-01-30T01:39:10;101314.44;;;7.02;100.00
44920;BME280;30655;53.094;6.072;2023-01-30T01:41:38;101292.09;;;6.90;100.00
44920;BME280;30655;53.094;6.072;2023-01-30T01:44:06;101125.34;;;5.92;100.00
44920;BME280;30655;53.094;6.072;2023-01-30T01:46:41;101130.88;;;5.79;100.00
44920;BME280;30655;53.094;6.072;2023-01-30T01:49:13;101158.06;;;6.12;100.00
44920;BME280;30655;53.094;6.072;2023-01-30T01:51:45;101295.72;;;7.07;100.00
44920;BME280;30655;53.094;6.072;2023-01-30T01:54:16;101292.56;;;6.99;100.00
44920;BME280;30655;53.094;6.072;2023-01-30T01:56:45;101158.97;;;6.06;100.00
44920;BME280;30655;53.094;6.072;2023-01-30T01:59:19;101297.34;;;7.08;100.00
44920;BME280;30655;53.094;6.072;2023-01-30T02:01:49;101171.63;;;6.17;100.00
44920;BME280;30655;53.094;6.072;2023-01-30T02:04:18;101277.81;;;6.89;100.00
44920;BME280;30655;53.094;6.072;2023-01-30T02:06:46;101278.88;;;6.88;100.00
44920;BME280;30655;53.094;6.072;2023-01-30T02:09:13;101130.97;;;6.02;100.00
44920;BME280;30655;53.094;6.072;2023-01-30T02:11:45;101249.44;;;6.82;100.00
44920;BME280;30655;53.094;6.072;2023-01-30T02:14:17;101297.81;;;7.05;100.00
44920;BME280;30655;53.094;6.072;2023-01-30T02:16:46;101305.53;;;7.13;100.00
44920;BME280;30655;53.094;6.072;2023-01-30T02:19:24;101293.50;;;7.16;100.00
44920;BME280;30655;53.094;6.072;2023-01-30T02:22:18;101218.34;;;6.63;100.00
44920;BME280;30655;53.094;6.072;2023-01-30T02:28:19;101272.22;;;7.03;100.00
44920;BME280;30655;53.094;6.072;2023-01-30T02:31:27;101290.00;;;7.15;100.00
44920;BME280;30655;53.094;6.072;2023-01-30T02:34:10;101092.13;;;6.04;100.00
44920;BME280;30655;53.094;6.072;2023-01-30T02:36:49;101232.84;;;6.85;100.00
44920;BME280;30655;53.094;6.072;2023-01-30T02:39:23;101275.25;;;7.18;100.00
44920;BME280;30655;53.094;6.072;2023-01-30T02:41:58;101223.75;;;6.86;100.00
44920;BME280;30655;53.094;6.072;2023-01-30T02:44:30;101212.75;;;6.87;100.00
44920;BME280;30655;53.094;6.072;2023-01-30T02:47:03;101066.59;;;6.02;100.00
44920;BME280;30655;53.094;6.072;2023-01-30T02:49:35;101076.13;;;5.98;100.00
44920;BME280;30655;53.094;6.072;2023-01-30T02:52:05;101217.44;;;6.92;100.00
44920;BME280;30655;53.094;6.072;2023-01-30T02:54:44;101265.66;;;7.33;100.00
44920;BME280;30655;53.094;6.072;2023-01-30T02:57:23;101264.59;;;7.34;100.00
44920;BME280;30655;53.094;6.072;2023-01-30T02:59:56;101226.53;;;7.14;100.00
44920;BME280;30655;53.094;6.072;2023-01-30T03:02:54;101273.84;;;7.39;100.00
44920;BME280;30655;53.094;6.072;2023-01-30T03:05:34;101099.59;;;6.14;100.00
44920;BME280;30655;53.094;6.072;2023-01-30T03:08:14;101157.03;;;6.48;100.00
44920;BME280;30655;53.094;6.072;2023-01-30T03:10:51;101128.78;;;6.45;100.00
44920;BME280;30655;53.094;6.072;2023-01-30T03:13:34;101120.84;;;6.39;100.00
44920;BME280;30655;53.094;6.072;2023-01-30T03:16:11;101266.25;;;7.24;100.00
44920;BME280;30655;53.094;6.072;2023-01-30T03:18:40;101261.34;;;7.21;100.00
44920;BME280;30655;53.094;6.072;2023-01-30T03:21:08;101277.22;;;7.22;100.00
44920;BME280;30655;53.094;6.072;2023-01-30T03:23:35;101118.84;;;6.11;100.00
44920;BME280;30655;53.094;6.072;2023-01-30T03:26:04;101150.25;;;6.34;100.00
44920;BME280;30655;53.094;6.072;2023-01-30T03:28:31;101154.69;;;6.28;100.00
44920;BME280;30655;53.094;6.072;2023-01-30T03:31:00;101279.59;;;7.07;100.00
44920;BME280;30655;53.094;6.072;2023-01-30T03:33:27;101094.06;;;5.86;100.00
44920;BME280;30655;53.094;6.072;2023-01-30T03:35:56;101204.00;;;6.57;100.00
44920;BME280;30655;53.094;6.072;2023-01-30T03:38:25;101170.91;;;6.33;100.00
44920;BME280;30655;53.094;6.072;2023-01-30T03:40:52;101269.31;;;7.04;100.00
44920;BME280;30655;53.094;6.072;2023-01-30T03:43:19;101280.88;;;7.05;100.00
44920;BME280;30655;53.094;6.072;2023-01-30T03:45:48;101225.84;;;6.72;100.00
44920;BME280;30655;53.094;6.072;2023-01-30T03:48:15;101236.59;;;6.72;100.00
44920;BME280;30655;53.094;6.072;2023-01-30T03:50:42;101210.16;;;6.58;100.00
44920;BME280;30655;53.094;6.072;2023-01-30T03:53:11;101198.72;;;6.27;100.00
44920;BME280;30655;53.094;6.072;2023-01-30T03:55:37;101158.06;;;6.24;100.00
44920;BME280;30655;53.094;6.072;2023-01-30T03:58:04;101152.69;;;6.12;100.00
44920;BME280;30655;53.094;6.072;2023-01-30T04:00:31;101183.25;;;6.23;100.00
44920;BME280;30655;53.094;6.072;2023-01-30T04:02:59;101162.63;;;6.23;100.00
44920;BME280;30655;53.094;6.072;2023-01-30T04:05:28;101218.00;;;6.59;100.00
44920;BME280;30655;53.094;6.072;2023-01-30T04:07:56;101284.50;;;6.87;100.00
44920;BME280;30655;53.094;6.072;2023-01-30T04:10:25;101085.72;;;5.64;100.00
44920;BME280;30655;53.094;6.072;2023-01-30T04:12:52;101231.06;;;6.44;100.00
44920;BME280;30655;53.094;6.072;2023-01-30T04:15:19;101257.94;;;6.79;100.00
44920;BME280;30655;53.094;6.072;2023-01-30T04:17:47;101102.41;;;5.66;100.00
44920;BME280;30655;53.094;6.072;2023-01-30T04:20:14;101298.84;;;6.81;100.00
44920;BME280;30655;53.094;6.072;2023-01-30T04:22:45;101188.16;;;6.14;100.00
44920;BME280;30655;53.094;6.072;2023-01-30T04:25:15;101189.78;;;6.15;100.00
44920;BME280;30655;53.094;6.072;2023-01-30T04:27:44;101256.91;;;6.57;100.00
44920;BME280;30655;53.094;6.072;2023-01-30T04:30:11;101185.81;;;6.06;100.00
44920;BME280;30655;53.094;6.072;2023-01-30T04:32:40;101248.22;;;6.55;100.00
44920;BME280;30655;53.094;6.072;2023-01-30T04:35:07;101296.59;;;6.78;100.00
44920;BME280;30655;53.094;6.072;2023-01-30T04:37:34;101295.00;;;6.77;100.00
44920;BME280;30655;53.094;6.072;2023-01-30T04:40:02;101251.00;;;6.48;100.00
44920;BME280;30655;53.094;6.072;2023-01-30T04:42:29;101286.22;;;6.70;100.00
44920;BME280;30655;53.094;6.072;2023-01-30T04:44:58;101119.63;;;5.58;100.00
44920;BME280;30655;53.094;6.072;2023-01-30T04:47:26;101290.41;;;6.66;100.00
44920;BME280;30655;53.094;6.072;2023-01-30T04:49:53;101230.19;;;6.20;100.00
44920;BME280;30655;53.094;6.072;2023-01-30T04:52:21;101183.44;;;5.98;100.00
44920;BME280;30655;53.094;6.072;2023-01-30T04:54:48;101175.13;;;5.88;100.00
44920;BME280;30655;53.094;6.072;2023-01-30T04:57:15;101270.06;;;6.46;100.00
44920;BME280;30655;53.094;6.072;2023-01-30T04:59:42;101229.38;;;6.20;100.00
44920;BME280;30655;53.094;6.072;2023-01-30T05:02:10;101219.31;;;6.15;100.00
44920;BME280;30655;53.094;6.072;2023-01-30T05:04:38;101297.97;;;6.45;100.00
44920;BME280;30655;53.094;6.072;2023-01-30T05:07:05;101254.13;;;6.22;100.00
44920;BME280;30655;53.094;6.072;2023-01-30T05:09:33;101119.53;;;5.35;100.00
44920;BME280;30655;53.094;6.072;2023-01-30T05:11:59;101182.78;;;5.84;100.00
44920;BME280;30655;53.094;6.072;2023-01-30T05:14:28;101272.09;;;6.33;100.00
44920;BME280;30655;53.094;6.072;2023-01-30T05:16:57;101156.56;;;5.56;100.00
44920;BME280;30655;53.094;6.072;2023-01-30T05:19:27;101131.56;;;5.44;100.00
44920;BME280;30655;53.094;6.072;2023-01-30T05:21:56;101110.53;;;5.30;100.00
44920;BME280;30655;53.094;6.072;2023-01-30T05:24:23;101118.34;;;5.31;100.00
44920;BME280;30655;53.094;6.072;2023-01-30T05:26:50;101239.66;;;5.93;100.00
44920;BME280;30655;53.094;6.072;2023-01-30T05:29:17;101202.34;;;5.73;100.00
44920;BME280;30655;53.094;6.072;2023-01-30T05:31:46;101225.19;;;5.94;100.00
44920;BME280;30655;53.094;6.072;2023-01-30T05:34:13;101164.47;;;5.51;100.00
44920;BME280;30655;53.094;6.072;2023-01-30T05:36:41;101275.94;;;6.25;100.00
44920;BME280;30655;53.094;6.072;2023-01-30T05:39:08;101159.34;;;5.50;100.00
44920;BME280;30655;53.094;6.072;2023-01-30T05:41:35;101301.97;;;6.25;100.00
44920;BME280;30655;53.094;6.072;2023-01-30T05:44:04;101194.97;;;5.69;100.00
44920;BME280;30655;53.094;6.072;2023-01-30T05:46:31;101227.75;;;5.89;100.00
44920;BME280;30655;53.094;6.072;2023-01-30T05:48:57;101198.25;;;5.71;100.00
44920;BME280;30655;53.094;6.072;2023-01-30T05:51:25;101300.72;;;6.27;100.00
44920;BME280;30655;53.094;6.072;2023-01-30T05:53:57;101214.06;;;5.60;99.82
44920;BME280;30655;53.094;6.072;2023-01-30T05:56:49;101299.50;;;6.23;98.86
44920;BME280;30655;53.094;6.072;2023-01-30T05:59:17;101153.25;;;5.25;99.77
44920;BME280;30655;53.094;6.072;2023-01-30T06:01:44;101128.50;;;5.11;98.61
44920;BME280;30655;53.094;6.072;2023-01-30T06:04:13;101308.16;;;6.25;99.29
44920;BME280;30655;53.094;6.072;2023-01-30T06:06:42;101190.63;;;5.56;99.44
44920;BME280;30655;53.094;6.072;2023-01-30T06:09:10;101246.50;;;5.89;98.88
44920;BME280;30655;53.094;6.072;2023-01-30T06:11:38;101154.88;;;5.44;98.08
44920;BME280;30655;53.094;6.072;2023-01-30T06:14:05;101292.31;;;6.35;98.39
44920;BME280;30655;53.094;6.072;2023-01-30T06:16:32;101238.31;;;6.02;98.16
44920;BME280;30655;53.094;6.072;2023-01-30T06:18:59;101261.22;;;6.16;97.64
44920;BME280;30655;53.094;6.072;2023-01-30T06:21:26;101134.28;;;5.26;97.76
44920;BME280;30655;53.094;6.072;2023-01-30T06:23:53;101138.06;;;5.37;97.46
44920;BME280;30655;53.094;6.072;2023-01-30T06:26:21;101307.28;;;6.43;97.36
44920;BME280;30655;53.094;6.072;2023-01-30T06:28:48;101172.53;;;5.51;97.00
44920;BME280;30655;53.094;6.072;2023-01-30T06:31:16;101268.91;;;6.13;96.79
44920;BME280;30655;53.094;6.072;2023-01-30T06:33:45;101179.94;;;5.68;97.10
44920;BME280;30655;53.094;6.072;2023-01-30T06:36:13;101274.00;;;6.32;97.16
44920;BME280;30655;53.094;6.072;2023-01-30T06:38:40;101263.56;;;6.24;97.00
44920;BME280;30655;53.094;6.072;2023-01-30T06:41:08;101239.91;;;6.03;96.51
44920;BME280;30655;53.094;6.072;2023-01-30T06:43:37;101154.19;;;5.48;95.93
44920;BME280;30655;53.094;6.072;2023-01-30T06:46:05;101304.97;;;6.46;96.16
44920;BME280;30655;53.094;6.072;2023-01-30T06:48:32;101324.34;;;6.48;95.85
44920;BME280;30655;53.094;6.072;2023-01-30T06:50:59;101304.72;;;6.36;96.00
44920;BME280;30655;53.094;6.072;2023-01-30T06:53:27;101320.69;;;6.43;96.24
44920;BME280;30655;53.094;6.072;2023-01-30T06:55:57;101329.00;;;6.41;96.08
44920;BME280;30655;53.094;6.072;2023-01-30T06:58:25;101123.97;;;5.11;96.12
44920;BME280;30655;53.094;6.072;2023-01-30T07:00:53;101314.84;;;6.34;96.92
44920;BME280;30655;53.094;6.072;2023-01-30T07:03:22;101324.53;;;6.35;96.49
44920;BME280;30655;53.094;6.072;2023-01-30T07:05:49;101255.31;;;5.96;96.90
44920;BME280;30655;53.094;6.072;2023-01-30T07:08:16;101219.25;;;5.74;96.58
44920;BME280;30655;53.094;6.072;2023-01-30T07:10:44;101219.84;;;5.76;96.04
44920;BME280;30655;53.094;6.072;2023-01-30T07:13:22;101307.69;;;6.28;96.31
44920;BME280;30655;53.094;6.072;2023-01-30T07:16:03;101310.72;;;6.20;96.37
44920;BME280;30655;53.094;6.072;2023-01-30T07:18:30;101267.22;;;6.00;96.42
44920;BME280;30655;53.094;6.072;2023-01-30T07:21:00;101361.03;;;6.55;95.83
44920;BME280;30655;53.094;6.072;2023-01-30T07:23:27;101338.00;;;6.47;96.27
44920;BME280;30655;53.094;6.072;2023-01-30T07:26:01;101349.94;;;6.51;95.91
44920;BME280;30655;53.094;6.072;2023-01-30T07:28:28;101209.44;;;5.68;96.07
44920;BME280;30655;53.094;6.072;2023-01-30T07:30:59;101239.81;;;5.80;95.75
44920;BME280;30655;53.094;6.072;2023-01-30T07:33:27;101240.97;;;5.84;95.63
44920;BME280;30655;53.094;6.072;2023-01-30T07:35:54;101298.25;;;6.26;94.91
44920;BME280;30655;53.094;6.072;2023-01-30T07:38:21;101198.44;;;5.57;94.90
44920;BME280;30655;53.094;6.072;2023-01-30T07:40:50;101326.47;;;6.28;94.43
44920;BME280;30655;53.094;6.072;2023-01-30T07:43:17;101170.13;;;5.43;94.33
44920;BME280;30655;53.094;6.072;2023-01-30T07:45:50;101355.19;;;6.58;93.71
44920;BME280;30655;53.094;6.072;2023-01-30T07:48:18;101328.75;;;6.43;94.24
44920;BME280;30655;53.094;6.072;2023-01-30T07:50:47;101190.78;;;5.43;94.05
44920;BME280;30655;53.094;6.072;2023-01-30T07:53:16;101160.34;;;5.37;94.76
44920;BME280;30655;53.094;6.072;2023-01-30T07:55:43;101354.63;;;6.56;94.79
44920;BME280;30655;53.094;6.072;2023-01-30T07:58:14;101303.84;;;6.24;94.64
44920;BME280;30655;53.094;6.072;2023-01-30T08:00:44;101263.78;;;5.93;94.54
44920;BME280;30655;53.094;6.072;2023-01-30T08:03:24;101159.59;;;5.30;94.85
44920;BME280;30655;53.094;6.072;2023-01-30T08:05:53;101323.16;;;6.44;94.58
44920;BME280;30655;53.094;6.072;2023-01-30T08:08:27;101292.97;;;6.19;94.99
44920;BME280;30655;53.094;6.072;2023-01-30T08:10:53;101356.84;;;6.59;94.38
44920;BME280;30655;53.094;6.072;2023-01-30T08:13:20;101250.47;;;5.86;94.65
44920;BME280;30655;53.094;6.072;2023-01-30T08:15:50;101247.56;;;5.88;94.30
44920;BME280;30655;53.094;6.072;2023-01-30T08:18:17;101348.78;;;6.59;94.28
44920;BME280;30655;53.094;6.072;2023-01-30T08:20:44;101307.88;;;6.15;94.02
44920;BME280;30655;53.094;6.072;2023-01-30T08:23:13;101301.34;;;6.11;94.06
44920;BME280;30655;53.094;6.072;2023-01-30T08:25:40;101175.63;;;5.48;94.24
44920;BME280;30655;53.094;6.072;2023-01-30T08:28:07;101408.00;;;6.64;93.95
44920;BME280;30655;53.094;6.072;2023-01-30T08:30:37;101288.06;;;6.16;93.64
44920;BME280;30655;53.094;6.072;2023-01-30T08:33:06;101236.69;;;5.64;93.49
44920;BME280;30655;53.094;6.072;2023-01-30T08:35:35;101141.16;;;5.22;94.03
44920;BME280;30655;53.094;6.072;2023-01-30T08:38:04;101305.47;;;6.25;93.81
44920;BME280;30655;53.094;6.072;2023-01-30T08:40:32;101322.53;;;6.31;93.77
44920;BME280;30655;53.094;6.072;2023-01-30T08:42:59;101392.63;;;6.71;93.94
44920;BME280;30655;53.094;6.072;2023-01-30T08:45:35;101370.41;;;6.64;92.97
44920;BME280;30655;53.094;6.072;2023-01-30T08:48:04;101220.00;;;5.81;93.28
44920;BME280;30655;53.094;6.072;2023-01-30T08:50:32;101364.84;;;6.77;92.82
44920;BME280;30655;53.094;6.072;2023-01-30T08:53:02;101350.81;;;6.75;93.07
44920;BME280;30655;53.094;6.072;2023-01-30T08:55:29;101229.00;;;5.86;92.81
44920;BME280;30655;53.094;6.072;2023-01-30T08:57:58;101330.50;;;6.79;93.22
44920;BME280;30655;53.094;6.072;2023-01-30T09:00:25;101383.09;;;6.98;92.51
44920;BME280;30655;53.094;6.072;2023-01-30T09:02:53;101270.38;;;6.38;92.05
44920;BME280;30655;53.094;6.072;2023-01-30T09:05:19;101268.03;;;6.30;91.98
44920;BME280;30655;53.094;6.072;2023-01-30T09:07:46;101220.28;;;5.91;92.06
44920;BME280;30655;53.094;6.072;2023-01-30T09:10:15;101206.28;;;5.89;91.33
44920;BME280;30655;53.094;6.072;2023-01-30T09:12:42;101250.00;;;6.19;91.79
44920;BME280;30655;53.094;6.072;2023-01-30T09:15:11;101345.09;;;6.71;91.56
44920;BME280;30655;53.094;6.072;2023-01-30T09:17:41;101247.16;;;6.32;91.50
44920;BME280;30655;53.094;6.072;2023-01-30T09:20:09;101343.00;;;6.85;91.06
44920;BME280;30655;53.094;6.072;2023-01-30T09:22:37;101305.63;;;6.72;91.02
44920;BME280;30655;53.094;6.072;2023-01-30T09:25:06;101212.28;;;6.02;91.27
44920;BME280;30655;53.094;6.072;2023-01-30T09:27:33;101176.34;;;6.03;90.78
44920;BME280;30655;53.094;6.072;2023-01-30T09:29:59;101177.53;;;6.08;90.86
44920;BME280;30655;53.094;6.072;2023-01-30T09:32:30;101194.16;;;5.98;91.52
44920;BME280;30655;53.094;6.072;2023-01-30T09:34:57;101367.94;;;7.15;91.93
44920;BME280;30655;53.094;6.072;2023-01-30T09:37:24;101345.47;;;6.98;92.15
44920;BME280;30655;53.094;6.072;2023-01-30T09:39:51;101253.31;;;6.33;92.30
44920;BME280;30655;53.094;6.072;2023-01-30T09:42:33;101387.25;;;7.24;92.03
44920;BME280;30655;53.094;6.072;2023-01-30T09:45:43;101309.00;;;6.79;91.46
44920;BME280;30655;53.094;6.072;2023-01-30T09:48:17;101385.16;;;7.26;91.40
44920;BME280;30655;53.094;6.072;2023-01-30T09:51:01;101407.00;;;7.29;91.99
44920;BME280;30655;53.094;6.072;2023-01-30T09:53:35;101364.22;;;7.16;91.03
44920;BME280;30655;53.094;6.072;2023-01-30T09:56:05;101302.56;;;6.68;90.80
44920;BME280;30655;53.094;6.072;2023-01-30T09:58:43;101401.16;;;7.32;90.28
44920;BME280;30655;53.094;6.072;2023-01-30T10:01:17;101292.84;;;6.56;90.12
44920;BME280;30655;53.094;6.072;2023-01-30T10:03:58;101245.91;;;6.46;89.59
44920;BME280;30655;53.094;6.072;2023-01-30T10:06:35;101391.94;;;7.40;88.36
44920;BME280;30655;53.094;6.072;2023-01-30T10:09:14;101401.75;;;7.46;88.87
44920;BME280;30655;53.094;6.072;2023-01-30T10:11:51;101264.34;;;6.55;88.14
44920;BME280;30655;53.094;6.072;2023-01-30T10:14:50;101386.19;;;7.60;87.36
44920;BME280;30655;53.094;6.072;2023-01-30T10:17:40;101420.81;;;7.68;86.77
44920;BME280;30655;53.094;6.072;2023-01-30T10:20:23;101317.00;;;6.97;86.18
44920;BME280;30655;53.094;6.072;2023-01-30T10:23:03;101345.28;;;7.11;86.78
44920;BME280;30655;53.094;6.072;2023-01-30T10:25:39;101347.50;;;7.26;87.46
44920;BME280;30655;53.094;6.072;2023-01-30T10:28:19;101324.38;;;7.37;86.29
44920;BME280;30655;53.094;6.072;2023-01-30T10:30:50;101424.44;;;7.73;86.83
44920;BME280;30655;53.094;6.072;2023-01-30T10:33:23;101237.75;;;6.65;86.37
44920;BME280;30655;53.094;6.072;2023-01-30T11:38:21;101344.41;;;5.61;89.92
44920;BME280;30655;53.094;6.072;2023-01-30T11:40:50;101422.97;;;6.23;89.63
44920;BME280;30655;53.094;6.072;2023-01-30T11:43:27;101548.72;;;6.81;89.85
44920;BME280;30655;53.094;6.072;2023-01-30T11:45:54;101507.63;;;6.62;90.33
44920;BME280;30655;53.094;6.072;2023-01-30T11:48:26;101544.53;;;6.85;90.12
44920;BME280;30655;53.094;6.072;2023-01-30T11:51:14;101561.19;;;6.75;89.39
44920;BME280;30655;53.094;6.072;2023-01-30T11:53:45;101547.22;;;6.85;89.83
44920;BME280;30655;53.094;6.072;2023-01-30T11:56:20;101517.38;;;6.75;90.01
44920;BME280;30655;53.094;6.072;2023-01-30T11:58:54;101554.69;;;7.13;90.49
44920;BME280;30655;53.094;6.072;2023-01-30T12:01:25;101545.66;;;7.25;90.22
44920;BME280;30655;53.094;6.072;2023-01-30T12:03:54;101537.38;;;7.39;90.16
44920;BME280;30655;53.094;6.072;2023-01-30T12:06:23;101547.28;;;7.79;89.54
44920;BME280;30655;53.094;6.072;2023-01-30T12:08:53;101541.34;;;7.89;88.54
44920;BME280;30655;53.094;6.072;2023-01-30T12:11:26;101557.16;;;8.20;88.25
44920;BME280;30655;53.094;6.072;2023-01-30T12:13:58;101561.03;;;8.01;87.01
44920;BME280;30655;53.094;6.072;2023-01-30T12:16:43;101503.78;;;7.71;85.26
44920;BME280;30655;53.094;6.072;2023-01-30T12:19:22;101594.84;;;8.09;85.33
44920;BME280;30655;53.094;6.072;2023-01-30T12:21:57;101538.53;;;7.96;87.05
44920;BME280;30655;53.094;6.072;2023-01-30T12:24:30;101587.63;;;8.33;86.33
44920;BME280;30655;53.094;6.072;2023-01-30T12:27:02;101614.06;;;8.24;84.58
44920;BME280;30655;53.094;6.072;2023-01-30T12:29:33;101563.59;;;8.19;84.98
44920;BME280;30655;53.094;6.072;2023-01-30T12:32:11;101592.19;;;8.44;83.32
44920;BME280;30655;53.094;6.072;2023-01-30T12:34:56;101506.56;;;8.22;83.62
44920;BME280;30655;53.094;6.072;2023-01-30T12:37:44;101505.75;;;8.34;81.30
44920;BME280;30655;53.094;6.072;2023-01-30T12:40:26;101508.47;;;8.85;82.02
44920;BME280;30655;53.094;6.072;2023-01-30T12:43:20;101607.88;;;9.50;80.20
44920;BME280;30655;53.094;6.072;2023-01-30T12:46:01;101602.94;;;9.47;80.66
44920;BME280;30655;53.094;6.072;2023-01-30T12:48:49;101599.22;;;9.81;79.75
44920;BME280;30655;53.094;6.072;2023-01-30T12:52:03;101606.50;;;10.26;80.21
44920;BME280;30655;53.094;6.072;2023-01-30T12:54:45;101559.78;;;10.14;77.35
44920;BME280;30655;53.094;6.072;2023-01-30T12:57:23;101537.72;;;9.83;77.48
44920;BME280;30655;53.094;6.072;2023-01-30T13:00:03;101613.66;;;10.04;78.55
44920;BME280;30655;53.094;6.072;2023-01-30T13:02:47;101528.56;;;9.51;77.42
44920;BME280;30655;53.094;6.072;2023-01-30T13:05:24;101612.59;;;9.88;77.41
44920;BME280;30655;53.094;6.072;2023-01-30T13:08:05;101630.84;;;9.81;77.75
44920;BME280;30655;53.094;6.072;2023-01-30T13:10:40;101614.91;;;9.51;78.18
44920;BME280;30655;53.094;6.072;2023-01-30T13:13:17;101544.56;;;9.13;79.63
44920;BME280;30655;53.094;6.072;2023-01-30T13:15:54;101619.28;;;9.40;79.17
44920;BME280;30655;53.094;6.072;2023-01-30T13:18:25;101540.81;;;8.85;80.02
44920;BME280;30655;53.094;6.072;2023-01-30T13:21:00;101621.22;;;9.17;80.98
44920;BME280;30655;53.094;6.072;2023-01-30T13:23:40;101621.59;;;9.20;79.90
44920;BME280;30655;53.094;6.072;2023-01-30T13:26:12;101619.63;;;9.04;80.77
44920;BME280;30655;53.094;6.072;2023-01-30T13:28:44;101652.94;;;9.10;81.30
44920;BME280;30655;53.094;6.072;2023-01-30T13:31:13;101656.09;;;9.06;80.38
44920;BME280;30655;53.094;6.072;2023-01-30T13:33:42;101642.00;;;9.16;80.79
44920;BME280;30655;53.094;6.072;2023-01-30T13:36:13;101639.06;;;9.18;80.77
44920;BME280;30655;53.094;6.072;2023-01-30T13:38:50;101625.03;;;9.04;80.49
44920;BME280;30655;53.094;6.072;2023-01-30T13:41:20;101631.03;;;8.94;81.14
44920;BME280;30655;53.094;6.072;2023-01-30T13:43:52;101550.38;;;8.30;80.51
44920;BME280;30655;53.094;6.072;2023-01-30T13:46:23;101665.03;;;8.84;80.60
44920;BME280;30655;53.094;6.072;2023-01-30T13:49:03;101641.84;;;8.48;81.30
44920;BME280;30655;53.094;6.072;2023-01-30T13:51:42;101692.34;;;8.87;81.73
44920;BME280;30655;53.094;6.072;2023-01-30T13:54:25;101667.97;;;8.82;80.51
44920;BME280;30655;53.094;6.072;2023-01-30T13:56:59;101704.66;;;9.06;80.36
44920;BME280;30655;53.094;6.072;2023-01-30T13:59:51;101695.03;;;8.87;80.35
44920;BME280;30655;53.094;6.072;2023-01-30T14:02:22;101710.28;;;8.70;81.45
44920;BME280;30655;53.094;6.072;2023-01-30T14:04:56;101706.06;;;8.51;81.37
44920;BME280;30655;53.094;6.072;2023-01-30T14:07:37;101723.84;;;8.52;82.04
44920;BME280;30655;53.094;6.072;2023-01-30T14:10:13;101697.59;;;8.36;82.28
44920;BME280;30655;53.094;6.072;2023-01-30T14:12:42;101734.16;;;8.55;82.05
44920;BME280;30655;53.094;6.072;2023-01-30T14:15:24;101741.78;;;8.58;81.48
44920;BME280;30655;53.094;6.072;2023-01-30T14:17:58;101757.25;;;8.51;81.84
44920;BME280;30655;53.094;6.072;2023-01-30T14:20:31;101756.66;;;8.49;81.73
44920;BME280;30655;53.094;6.072;2023-01-30T14:22:59;101762.16;;;8.54;81.98